Time;durP1;ratioP1;P1;durP2;ratioP2;P2;SDS_P1;SDS_P2;PMS_P1;PMS_P2;Temp;Humidity;BMP_temperature;BMP_pressure;BME280_temperature;BME280_humidity;BME280_pressure;Samples;Min_cycle;Max_cycle;Signal;HPM_P1;HPM_P2
2023/08/08 00:01:23;;;;;;;7.68;3.08;;;14.60;99.90;;;;;;5076993;28;20135;-79
2023/08/08 00:03:49;;;;;;;7.10;2.72;;;14.50;99.90;;;;;;5074319;28;20040;-80
2023/08/08 00:06:14;;;;;;;6.68;2.88;;;14.50;99.90;;;;;;5076173;28;20055;-79
2023/08/08 00:08:41;;;;;;;6.65;2.80;;;14.50;99.90;;;;;;5076258;28;20040;-78
2023/08/08 00:11:06;;;;;;;5.40;2.70;;;14.40;99.90;;;;;;5076633;28;20048;-80
2023/08/08 00:13:32;;;;;;;5.93;2.50;;;14.40;99.90;;;;;;5074930;28;20070;-78
2023/08/08 00:15:58;;;;;;;7.93;2.50;;;14.40;99.90;;;;;;5075370;28;20101;-79
2023/08/08 00:18:24;;;;;;;10.18;3.10;;;14.40;99.90;;;;;;5091988;28;20119;-80
2023/08/08 00:20:49;;;;;;;8.02;2.80;;;14.40;99.90;;;;;;5092028;28;20083;-79
2023/08/08 00:23:15;;;;;;;8.63;2.72;;;14.40;99.90;;;;;;5059529;28;20106;-80
2023/08/08 00:25:41;;;;;;;6.43;2.80;;;14.40;99.90;;;;;;5076222;28;20043;-79
2023/08/08 00:28:07;;;;;;;6.85;2.70;;;14.30;99.90;;;;;;5085855;28;20048;-79
2023/08/08 00:30:32;;;;;;;9.07;2.80;;;14.30;99.90;;;;;;5059818;28;20045;-75
2023/08/08 00:32:58;;;;;;;6.47;3.00;;;14.30;99.90;;;;;;5075128;28;20095;-80
2023/08/08 00:35:24;;;;;;;6.78;3.03;;;14.30;99.90;;;;;;5042666;28;20115;-79
2023/08/08 00:37:49;;;;;;;7.90;2.80;;;14.30;99.90;;;;;;5075020;28;20078;-79
2023/08/08 00:40:15;;;;;;;7.72;3.25;;;14.30;99.90;;;;;;5074731;28;20110;-79
2023/08/08 00:42:41;;;;;;;5.03;2.88;;;14.30;99.90;;;;;;5075610;28;20564;-79
2023/08/08 00:45:07;;;;;;;6.30;2.55;;;14.30;99.90;;;;;;5058239;28;20050;-78
2023/08/08 00:47:34;;;;;;;6.18;2.72;;;14.30;99.90;;;;;;5075575;28;20387;-79
2023/08/08 00:50:02;;;;;;;7.35;3.28;;;14.30;99.90;;;;;;5074940;28;20124;-78
2023/08/08 00:52:28;;;;;;;7.35;3.30;;;14.20;99.90;;;;;;5060874;28;20037;-78
2023/08/08 00:54:54;;;;;;;7.22;2.72;;;14.20;99.90;;;;;;5055755;28;20514;-78
2023/08/08 00:57:20;;;;;;;7.28;2.88;;;14.20;99.90;;;;;;5083060;28;20041;-79
2023/08/08 00:59:46;;;;;;;7.28;3.05;;;14.20;99.90;;;;;;5088774;28;20037;-79
2023/08/08 01:02:11;;;;;;;7.70;3.00;;;14.20;99.90;;;;;;5062664;28;20055;-79
2023/08/08 01:04:38;;;;;;;6.45;2.50;;;14.10;99.90;;;;;;5075641;28;20072;-77
2023/08/08 01:07:38;;;;;;;8.15;2.95;;;14.20;99.90;;;;;;5074877;28;20130;-78
2023/08/08 01:10:27;;;;;;;6.00;2.92;;;14.10;99.90;;;;;;5054656;28;20061;-79
2023/08/08 01:12:59;;;;;;;7.30;3.50;;;14.10;99.90;;;;;;5060027;28;20040;-79
2023/08/08 01:15:25;;;;;;;10.73;3.38;;;14.10;99.90;;;;;;5076547;28;20047;-79
2023/08/08 01:17:52;;;;;;;10.38;3.05;;;14.10;99.90;;;;;;5055864;28;20557;-78
2023/08/08 01:20:18;;;;;;;5.88;3.22;;;14.10;99.90;;;;;;5072773;28;20109;-79
2023/08/08 01:23:14;;;;;;;7.93;3.25;;;14.10;99.90;;;;;;5074748;28;20044;-79
2023/08/08 01:25:41;;;;;;;8.57;2.80;;;14.10;99.90;;;;;;5074977;28;20059;-74
2023/08/08 01:28:07;;;;;;;8.20;3.47;;;14.10;99.90;;;;;;5059708;28;20045;-80
2023/08/08 01:30:33;;;;;;;7.15;3.00;;;14.10;99.90;;;;;;5074456;28;20094;-79
2023/08/08 01:32:59;;;;;;;6.18;2.92;;;14.10;99.90;;;;;;5074410;28;20040;-79
2023/08/08 01:35:31;;;;;;;8.88;3.17;;;14.10;99.90;;;;;;5074129;28;20440;-79
2023/08/08 01:38:22;;;;;;;6.93;3.13;;;14.10;99.90;;;;;;5068970;28;20040;-79
2023/08/08 01:40:49;;;;;;;5.63;2.88;;;14.10;99.90;;;;;;5073997;28;20402;-78
2023/08/08 01:43:16;;;;;;;7.57;2.88;;;14.10;99.90;;;;;;5055100;28;20390;-78
2023/08/08 01:45:43;;;;;;;9.65;3.10;;;14.10;99.90;;;;;;5055996;28;20079;-78
2023/08/08 01:48:09;;;;;;;7.47;3.47;;;14.10;99.90;;;;;;5036954;28;20050;-76
2023/08/08 01:50:36;;;;;;;6.20;2.85;;;14.10;99.90;;;;;;5052945;28;20084;-77
2023/08/08 01:53:02;;;;;;;8.38;3.33;;;14.20;99.90;;;;;;5052626;28;20045;-74
2023/08/08 01:55:28;;;;;;;7.93;2.72;;;14.20;99.90;;;;;;5053758;28;20048;-77
2023/08/08 01:57:53;;;;;;;9.70;2.85;;;14.20;99.90;;;;;;5051655;28;20041;-78
2023/08/08 02:00:19;;;;;;;8.00;3.10;;;14.20;99.90;;;;;;5049586;28;20395;-79
2023/08/08 02:02:45;;;;;;;4.93;2.88;;;14.20;99.90;;;;;;5045757;28;20144;-74
2023/08/08 02:05:10;;;;;;;7.32;3.03;;;14.30;99.90;;;;;;5052431;28;20049;-79
2023/08/08 02:07:36;;;;;;;6.03;2.80;;;14.30;99.90;;;;;;5053328;28;20435;-78
2023/08/08 02:10:02;;;;;;;5.03;2.70;;;14.30;99.90;;;;;;5068530;28;20045;-78
2023/08/08 02:12:29;;;;;;;3.92;2.63;;;14.30;99.90;;;;;;5052974;28;20052;-78
2023/08/08 02:14:56;;;;;;;10.40;3.00;;;14.30;99.90;;;;;;5052923;28;20049;-77
2023/08/08 02:17:22;;;;;;;8.25;2.78;;;14.30;99.90;;;;;;5053681;28;20040;-77
2023/08/08 02:19:48;;;;;;;6.50;2.70;;;14.30;99.90;;;;;;5052977;28;20449;-75
2023/08/08 02:22:13;;;;;;;8.63;2.92;;;14.30;99.90;;;;;;5053209;28;20505;-78
2023/08/08 02:24:39;;;;;;;8.55;2.65;;;14.40;99.90;;;;;;5054018;28;20148;-78
2023/08/08 02:27:05;;;;;;;7.95;3.10;;;14.40;99.90;;;;;;5052285;28;20049;-78
2023/08/08 02:29:30;;;;;;;6.97;2.60;;;14.40;99.90;;;;;;5053201;28;20044;-79
2023/08/08 02:31:56;;;;;;;8.02;3.28;;;14.40;99.90;;;;;;5052523;28;20044;-78
2023/08/08 02:34:22;;;;;;;8.85;3.10;;;14.40;99.90;;;;;;5069250;28;20070;-78
2023/08/08 02:36:48;;;;;;;10.15;3.10;;;14.40;99.90;;;;;;5069381;28;20486;-77
2023/08/08 02:51:03;;;;;;;8.07;3.20;;;14.30;99.90;;;;;;4893982;29;20184;-78
2023/08/08 02:53:29;;;;;;;6.32;2.65;;;14.30;99.90;;;;;;4897806;29;20123;-79
2023/08/08 02:55:54;;;;;;;10.68;3.88;;;14.30;99.90;;;;;;4898028;29;20135;-78
2023/08/08 02:58:20;;;;;;;7.85;2.83;;;14.30;99.90;;;;;;4887304;29;20056;-74
2023/08/08 03:00:46;;;;;;;8.98;3.40;;;14.20;99.90;;;;;;4894749;29;20048;-78
2023/08/08 03:03:11;;;;;;;8.88;3.38;;;14.20;99.90;;;;;;4882635;29;20048;-78
2023/08/08 03:05:37;;;;;;;8.63;2.70;;;14.20;99.90;;;;;;4898696;29;20088;-78
2023/08/08 03:08:03;;;;;;;12.85;3.35;;;14.20;99.90;;;;;;4899102;29;20550;-78
2023/08/08 03:10:29;;;;;;;8.00;2.78;;;14.20;99.90;;;;;;4885336;29;20053;-78
2023/08/08 03:12:54;;;;;;;8.30;3.25;;;14.10;99.90;;;;;;4896625;29;20566;-78
2023/08/08 03:15:20;;;;;;;9.15;2.92;;;14.10;99.90;;;;;;4899572;29;20053;-74
2023/08/08 03:17:46;;;;;;;8.07;2.67;;;13.90;99.90;;;;;;4898256;29;20103;-79
2023/08/08 03:20:11;;;;;;;8.43;2.55;;;14.10;99.90;;;;;;4899990;29;20049;-79
2023/08/08 03:22:38;;;;;;;7.97;2.85;;;14.00;99.90;;;;;;4895464;29;20108;-77
2023/08/08 03:25:04;;;;;;;5.28;2.47;;;14.10;99.90;;;;;;4884821;29;20507;-78
2023/08/08 03:27:30;;;;;;;7.28;2.50;;;14.00;99.90;;;;;;4898469;29;20040;-78
2023/08/08 03:29:56;;;;;;;8.13;2.47;;;14.00;99.90;;;;;;4889470;29;20045;-79
2023/08/08 03:32:22;;;;;;;7.10;2.63;;;14.00;99.90;;;;;;4893277;29;20045;-78
2023/08/08 03:34:48;;;;;;;7.00;2.45;;;14.00;99.90;;;;;;4881952;29;20068;-78
2023/08/08 03:37:14;;;;;;;4.25;2.20;;;13.90;99.90;;;;;;4881291;29;20476;-78
2023/08/08 03:39:39;;;;;;;8.57;2.80;;;13.90;99.90;;;;;;4894343;29;20482;-78
2023/08/08 03:42:05;;;;;;;7.82;2.50;;;13.90;99.90;;;;;;4896979;29;20088;-78
2023/08/08 03:44:31;;;;;;;4.70;2.25;;;13.90;99.90;;;;;;4891269;29;20045;-79
2023/08/08 03:46:57;;;;;;;5.88;2.33;;;13.90;99.90;;;;;;4895303;29;20048;-78
2023/08/08 03:49:22;;;;;;;4.60;2.03;;;13.80;99.90;;;;;;4896815;29;20049;-76
2023/08/08 03:51:48;;;;;;;5.55;2.25;;;13.90;99.90;;;;;;4867860;29;20069;-78
2023/08/08 03:54:15;;;;;;;5.63;2.45;;;13.80;99.90;;;;;;4900701;29;20550;-77
2023/08/08 03:56:41;;;;;;;5.13;1.95;;;13.90;99.90;;;;;;4899169;29;20087;-78
2023/08/08 03:59:06;;;;;;;5.75;2.00;;;13.80;99.90;;;;;;4901424;29;20533;-78
2023/08/08 04:01:32;;;;;;;3.30;1.73;;;13.80;99.90;;;;;;4900857;29;20088;-77
2023/08/08 04:03:58;;;;;;;7.07;2.63;;;13.80;99.90;;;;;;4900978;29;20452;-78
2023/08/08 04:06:24;;;;;;;4.25;2.15;;;13.80;99.90;;;;;;4892999;29;20096;-78
2023/08/08 04:08:50;;;;;;;4.22;1.92;;;13.80;99.90;;;;;;4899906;29;20119;-76
2023/08/08 04:11:16;;;;;;;5.82;2.33;;;13.70;99.90;;;;;;4900580;29;20131;-77
2023/08/08 04:13:42;;;;;;;6.95;2.15;;;13.70;99.90;;;;;;4900343;29;20484;-78
2023/08/08 04:16:08;;;;;;;8.15;2.30;;;13.70;99.90;;;;;;4896578;29;20146;-78
2023/08/08 04:18:33;;;;;;;5.03;2.10;;;13.70;99.90;;;;;;4899323;29;20060;-76
2023/08/08 04:20:59;;;;;;;8.52;1.92;;;13.70;99.90;;;;;;4899581;29;20087;-78
2023/08/08 04:23:25;;;;;;;5.85;2.08;;;13.70;99.90;;;;;;4900717;29;20052;-78
2023/08/08 04:25:52;;;;;;;9.07;2.05;;;13.70;99.90;;;;;;4880753;29;20048;-77
2023/08/08 04:28:18;;;;;;;7.28;2.53;;;13.70;99.90;;;;;;4890060;29;20078;-78
2023/08/08 04:30:44;;;;;;;5.30;2.40;;;13.70;99.90;;;;;;4898433;29;20044;-77
2023/08/08 04:33:09;;;;;;;7.53;2.03;;;13.70;99.90;;;;;;4899951;29;20049;-78
2023/08/08 04:35:35;;;;;;;7.93;2.47;;;13.70;99.90;;;;;;4893732;29;20128;-76
2023/08/08 04:38:01;;;;;;;5.88;2.25;;;13.60;99.90;;;;;;4899610;29;20140;-77
2023/08/08 04:40:27;;;;;;;9.02;2.40;;;13.70;99.90;;;;;;4863905;29;20052;-78
2023/08/08 04:42:53;;;;;;;6.60;2.22;;;13.80;99.90;;;;;;4898659;29;20049;-78
2023/08/08 04:45:20;;;;;;;6.22;2.20;;;13.80;99.90;;;;;;4899359;29;20052;-78
2023/08/08 04:47:46;;;;;;;4.05;1.92;;;13.80;99.90;;;;;;4896896;29;20067;-77
2023/08/08 04:50:12;;;;;;;5.32;2.13;;;13.80;99.90;;;;;;4899432;29;20071;-77
2023/08/08 04:52:38;;;;;;;6.82;2.08;;;14.00;99.90;;;;;;4899613;29;20044;-77
2023/08/08 04:55:04;;;;;;;3.78;1.65;;;14.10;99.90;;;;;;4898647;29;20053;-78
2023/08/08 04:57:30;;;;;;;5.65;2.13;;;14.30;99.90;;;;;;4898730;29;20052;-77
2023/08/08 04:59:57;;;;;;;9.88;2.38;;;14.40;99.90;;;;;;4899710;29;20045;-77
2023/08/08 05:02:22;;;;;;;2.88;1.65;;;14.50;99.90;;;;;;4899291;29;20045;-78
2023/08/08 05:04:49;;;;;;;5.13;1.95;;;14.50;99.90;;;;;;4900481;29;20452;-77
2023/08/08 05:07:15;;;;;;;5.97;2.00;;;14.50;99.90;;;;;;4905699;29;20124;-77
2023/08/08 05:09:41;;;;;;;5.22;2.08;;;14.50;99.90;;;;;;4900598;29;20068;-77
2023/08/08 05:12:07;;;;;;;7.32;2.30;;;14.80;99.90;;;;;;4900168;29;20119;-79
2023/08/08 05:14:33;;;;;;;6.68;1.90;;;15.00;99.90;;;;;;4900308;29;20384;-78
2023/08/08 05:16:58;;;;;;;6.93;1.70;;;15.20;99.90;;;;;;4882889;29;20120;-78
2023/08/08 05:19:25;;;;;;;5.30;1.88;;;15.20;99.90;;;;;;4899318;29;20474;-77
2023/08/08 05:21:50;;;;;;;5.50;2.00;;;15.30;99.90;;;;;;4873074;29;20059;-77
2023/08/08 05:24:16;;;;;;;5.93;1.85;;;15.30;99.90;;;;;;4895650;29;20048;-78
2023/08/08 05:26:42;;;;;;;6.22;1.77;;;15.40;99.90;;;;;;4894009;29;20547;-75
2023/08/08 05:29:07;;;;;;;8.82;2.05;;;15.90;99.90;;;;;;4893418;29;20045;-77
2023/08/08 05:31:33;;;;;;;7.10;2.00;;;16.50;99.90;;;;;;4896163;29;20067;-78
2023/08/08 05:33:59;;;;;;;4.68;1.67;;;17.30;99.90;;;;;;4899136;29;20041;-78
2023/08/08 05:36:24;;;;;;;5.20;2.10;;;18.00;99.90;;;;;;4898341;29;20096;-78
2023/08/08 05:38:50;;;;;;;7.95;1.65;;;18.60;99.90;;;;;;4891027;29;20109;-77
2023/08/08 05:41:16;;;;;;;7.05;1.60;;;19.00;99.90;;;;;;4895461;29;20084;-77
2023/08/08 05:43:42;;;;;;;6.47;1.83;;;18.90;99.90;;;;;;4894493;29;20036;-78
2023/08/08 05:46:08;;;;;;;5.70;1.80;;;18.90;99.90;;;;;;4882578;29;20267;-78
2023/08/08 05:48:33;;;;;;;7.18;1.92;;;18.70;99.90;;;;;;4898831;29;20083;-77
2023/08/08 05:50:59;;;;;;;5.18;1.90;;;18.30;99.90;;;;;;4897894;29;20136;-78
2023/08/08 05:53:25;;;;;;;7.38;2.10;;;18.20;99.90;;;;;;4889961;29;20097;-78
2023/08/08 05:55:51;;;;;;;4.75;1.70;;;18.60;99.90;;;;;;4877297;29;20490;-77
2023/08/08 05:58:16;;;;;;;4.53;1.63;;;18.90;99.90;;;;;;4882096;29;20052;-76
2023/08/08 06:00:42;;;;;;;6.10;1.83;;;19.20;99.90;;;;;;4880640;29;20052;-78
2023/08/08 06:03:08;;;;;;;6.95;1.90;;;19.70;99.90;;;;;;4898771;29;20060;-75
2023/08/08 06:05:34;;;;;;;5.97;1.70;;;20.50;99.90;;;;;;4896686;29;20049;-78
2023/08/08 06:07:59;;;;;;;4.97;1.60;;;21.40;99.90;;;;;;4881052;29;20048;-79
2023/08/08 06:10:26;;;;;;;7.00;1.70;;;22.10;99.90;;;;;;4889282;29;20118;-78
2023/08/08 06:12:51;;;;;;;5.50;1.42;;;22.70;99.90;;;;;;4897771;29;20492;-76
2023/08/08 06:15:17;;;;;;;5.47;1.55;;;23.40;99.90;;;;;;4896680;29;20051;-76
2023/08/08 06:17:43;;;;;;;6.63;1.60;;;23.70;99.90;;;;;;4897096;29;20052;-77
2023/08/08 06:20:09;;;;;;;6.53;1.50;;;24.10;99.90;;;;;;4880795;29;20459;-77
2023/08/08 06:22:36;;;;;;;5.68;1.67;;;23.80;99.20;;;;;;4895029;29;20421;-78
2023/08/08 06:25:02;;;;;;;6.15;1.88;;;23.70;99.90;;;;;;4898124;29;20128;-76
2023/08/08 06:27:28;;;;;;;5.82;1.50;;;23.70;99.90;;;;;;4896374;29;20415;-76
2023/08/08 06:29:53;;;;;;;8.02;2.03;;;23.90;99.90;;;;;;4898320;29;20048;-75
2023/08/08 06:32:19;;;;;;;9.23;2.20;;;24.50;99.90;;;;;;4896975;29;20060;-77
2023/08/08 06:34:45;;;;;;;4.60;1.30;;;24.90;99.90;;;;;;4909335;29;20044;-76
2023/08/08 06:37:11;;;;;;;6.32;1.60;;;25.20;99.30;;;;;;4897597;29;20195;-78
2023/08/08 06:39:38;;;;;;;5.38;1.92;;;25.60;98.90;;;;;;4893402;29;20087;-76
2023/08/08 06:42:04;;;;;;;4.03;1.45;;;25.80;97.30;;;;;;4900845;29;20064;-75
2023/08/08 06:44:32;;;;;;;4.78;1.42;;;26.00;98.10;;;;;;4897657;29;20049;-76
2023/08/08 06:46:58;;;;;;;5.50;1.63;;;25.90;96.70;;;;;;4897206;29;20071;-76
2023/08/08 06:49:24;;;;;;;4.47;1.50;;;26.00;97.20;;;;;;4876422;29;20148;-77
2023/08/08 06:51:50;;;;;;;6.38;1.60;;;26.00;97.30;;;;;;4896012;29;20056;-76
2023/08/08 06:54:15;;;;;;;3.78;1.30;;;25.50;96.30;;;;;;4896734;29;20060;-76
2023/08/08 06:56:41;;;;;;;6.95;2.08;;;25.60;97.30;;;;;;4894371;29;20140;-77
2023/08/08 06:59:07;;;;;;;4.80;1.60;;;25.60;97.40;;;;;;4862614;29;20112;-76
2023/08/08 07:01:33;;;;;;;3.47;1.38;;;25.80;96.80;;;;;;4883936;29;20048;-77
2023/08/08 07:03:59;;;;;;;4.35;1.42;;;26.10;96.70;;;;;;4886794;29;20041;-76
2023/08/08 07:06:25;;;;;;;5.95;1.75;;;26.20;96.60;;;;;;4896810;29;20048;-76
2023/08/08 07:08:51;;;;;;;3.95;1.50;;;26.30;95.90;;;;;;4897760;29;20223;-75
2023/08/08 07:11:16;;;;;;;4.97;1.80;;;26.40;96.40;;;;;;4896404;29;20185;-77
2023/08/08 07:13:42;;;;;;;7.03;1.70;;;26.10;96.40;;;;;;4888581;29;20080;-76
2023/08/08 07:16:08;;;;;;;6.38;1.70;;;25.70;96.60;;;;;;4896472;29;20429;-77
2023/08/08 07:18:34;;;;;;;7.47;1.70;;;25.30;96.40;;;;;;4899027;29;20095;-79
2023/08/08 07:21:00;;;;;;;5.93;1.85;;;25.60;96.50;;;;;;4901606;29;20052;-75
2023/08/08 07:23:26;;;;;;;9.73;1.83;;;25.90;95.90;;;;;;4905133;29;20083;-80
2023/08/08 07:25:51;;;;;;;5.63;1.77;;;26.60;95.70;;;;;;4901927;29;20436;-78
2023/08/08 07:28:17;;;;;;;7.30;1.88;;;26.90;94.90;;;;;;4900281;29;20059;-75
2023/08/08 07:30:43;;;;;;;5.70;1.80;;;27.00;95.20;;;;;;4900548;29;20072;-78
2023/08/08 07:33:09;;;;;;;7.88;1.75;;;27.20;95.60;;;;;;4880598;29;20420;-77
2023/08/08 07:35:35;;;;;;;5.80;1.58;;;27.40;94.90;;;;;;4901019;29;20075;-78
2023/08/08 07:38:00;;;;;;;4.90;1.50;;;27.30;94.50;;;;;;4899653;29;20072;-71
2023/08/08 07:40:26;;;;;;;6.18;1.50;;;26.80;94.70;;;;;;4902695;29;20049;-80
2023/08/08 07:42:52;;;;;;;5.40;1.52;;;26.30;94.90;;;;;;4901929;29;20049;-73
2023/08/08 07:45:18;;;;;;;7.10;1.88;;;25.70;95.50;;;;;;4897070;29;20419;-78
2023/08/08 07:47:44;;;;;;;5.93;1.58;;;25.30;95.60;;;;;;4895989;29;20048;-79
2023/08/08 07:50:11;;;;;;;3.95;1.30;;;24.90;95.60;;;;;;4901338;29;20060;-79
2023/08/08 07:52:38;;;;;;;8.73;2.10;;;24.60;96.20;;;;;;4885650;29;20095;-79
2023/08/08 07:55:04;;;;;;;6.63;1.45;;;24.50;96.70;;;;;;4896322;29;20041;-71
2023/08/08 07:57:31;;;;;;;6.80;1.60;;;24.30;96.80;;;;;;4894572;29;20411;-79
2023/08/08 07:59:57;;;;;;;6.43;1.58;;;24.00;97.10;;;;;;4894442;29;20452;-80
2023/08/08 08:02:22;;;;;;;5.97;1.70;;;23.40;98.00;;;;;;4898911;29;20036;-77
2023/08/08 08:04:48;;;;;;;6.38;1.50;;;22.80;97.80;;;;;;4894335;29;20126;-79
2023/08/08 08:07:14;;;;;;;6.00;1.50;;;22.50;98.70;;;;;;4898944;29;20090;-77
2023/08/08 08:09:42;;;;;;;2.85;1.20;;;22.30;98.70;;;;;;4899277;29;20053;-77
2023/08/08 08:12:08;;;;;;;5.38;1.48;;;22.30;98.80;;;;;;4900157;29;20071;-76
2023/08/08 08:14:34;;;;;;;7.32;1.95;;;22.40;99.10;;;;;;4880856;29;20040;-74
2023/08/08 08:17:00;;;;;;;6.18;1.60;;;22.40;98.80;;;;;;4885073;29;20049;-76
2023/08/08 08:19:25;;;;;;;4.15;1.35;;;22.60;98.50;;;;;;4901072;29;20530;-75
2023/08/08 08:21:51;;;;;;;6.97;1.67;;;22.50;98.40;;;;;;4898752;29;20057;-76
2023/08/08 08:24:17;;;;;;;4.72;1.60;;;22.40;98.60;;;;;;4891281;29;20044;-75
2023/08/08 08:26:42;;;;;;;6.38;1.80;;;22.20;98.60;;;;;;4894621;29;20048;-78
2023/08/08 08:29:08;;;;;;;5.60;1.75;;;21.90;99.30;;;;;;4897234;29;20083;-70
2023/08/08 08:31:33;;;;;;;5.28;1.33;;;21.70;99.80;;;;;;4900271;29;20107;-77
2023/08/08 08:33:59;;;;;;;6.38;1.83;;;21.50;99.90;;;;;;4898881;29;20131;-80
2023/08/08 08:36:26;;;;;;;5.30;1.48;;;21.40;99.90;;;;;;4906681;29;20100;-77
2023/08/08 08:38:52;;;;;;;6.43;1.58;;;21.30;99.90;;;;;;4897381;29;20136;-75
2023/08/08 08:41:19;;;;;;;5.75;1.92;;;21.30;99.90;;;;;;4895651;29;20123;-76
2023/08/08 08:43:46;;;;;;;5.15;1.50;;;21.20;99.90;;;;;;4889097;29;20432;-74
2023/08/08 08:46:14;;;;;;;6.15;1.60;;;21.10;99.90;;;;;;4891103;29;20124;-70
2023/08/08 08:48:42;;;;;;;7.25;1.75;;;21.10;99.90;;;;;;4895015;29;20052;-69
2023/08/08 08:51:08;;;;;;;4.32;1.40;;;20.90;99.90;;;;;;4909754;29;20108;-76
2023/08/08 08:53:35;;;;;;;7.28;1.52;;;20.80;99.90;;;;;;4898474;29;20052;-76
2023/08/08 08:56:02;;;;;;;4.90;1.42;;;20.70;99.90;;;;;;4896997;29;20490;-76
2023/08/08 08:58:28;;;;;;;5.53;1.63;;;20.80;99.90;;;;;;4897954;29;20052;-72
2023/08/08 09:00:55;;;;;;;6.13;1.60;;;21.10;99.90;;;;;;4898593;29;20056;-77
2023/08/08 09:03:21;;;;;;;5.50;1.77;;;21.20;99.90;;;;;;4882634;29;28286;-72
2023/08/08 09:05:48;;;;;;;9.70;1.80;;;21.30;99.90;;;;;;4898492;29;20459;-74
2023/08/08 09:08:15;;;;;;;5.72;1.55;;;21.30;99.90;;;;;;4896436;29;20083;-71
2023/08/08 09:10:40;;;;;;;7.25;1.63;;;21.30;99.90;;;;;;4869619;29;24290;-73
2023/08/08 09:13:06;;;;;;;6.50;1.60;;;21.50;99.90;;;;;;4899924;29;20103;-75
2023/08/08 09:15:33;;;;;;;4.80;1.65;;;21.70;99.90;;;;;;4897175;29;20053;-76
2023/08/08 09:17:59;;;;;;;2.92;1.30;;;21.40;99.90;;;;;;4898626;29;20048;-73
2023/08/08 09:20:29;;;;;;;5.15;1.20;;;21.10;99.90;;;;;;4898686;29;20052;-74
2023/08/08 09:22:55;;;;;;;5.78;1.42;;;21.20;99.90;;;;;;4906802;29;20058;-77
2023/08/08 09:25:21;;;;;;;6.78;1.20;;;21.80;99.90;;;;;;4898515;29;20056;-74
2023/08/08 09:27:47;;;;;;;6.50;1.73;;;22.50;99.90;;;;;;4898801;29;20037;-75
2023/08/08 09:30:14;;;;;;;5.78;1.52;;;23.10;99.70;;;;;;4897036;29;20131;-75
2023/08/08 09:32:42;;;;;;;4.18;1.38;;;23.40;99.00;;;;;;4897781;29;20064;-75
2023/08/08 09:35:11;;;;;;;5.03;1.40;;;23.90;98.50;;;;;;4887456;29;20084;-75
2023/08/08 09:37:38;;;;;;;4.68;1.33;;;24.00;98.40;;;;;;4898351;29;20048;-76
2023/08/08 09:40:07;;;;;;;3.28;1.45;;;24.10;98.50;;;;;;4904509;29;20104;-75
2023/08/08 09:42:33;;;;;;;6.38;1.55;;;24.00;98.00;;;;;;4912508;29;20041;-75
2023/08/08 09:44:59;;;;;;;5.55;1.20;;;24.30;97.90;;;;;;4908844;29;20045;-79
2023/08/08 09:47:30;;;;;;;4.97;1.63;;;24.10;97.60;;;;;;4894047;29;20507;-78
2023/08/08 09:50:01;;;;;;;8.00;2.00;;;24.10;97.60;;;;;;4894554;29;20423;-78
2023/08/08 09:52:30;;;;;;;4.30;1.40;;;24.30;97.60;;;;;;4895805;29;20059;-76
2023/08/08 09:54:56;;;;;;;7.00;1.50;;;24.10;96.80;;;;;;4882167;29;20063;-77
2023/08/08 09:57:26;;;;;;;3.97;1.10;;;23.90;96.90;;;;;;4881019;29;20055;-72
2023/08/08 09:59:52;;;;;;;5.20;1.65;;;23.50;97.40;;;;;;4898458;29;20070;-76
2023/08/08 10:02:18;;;;;;;5.38;1.70;;;23.10;97.60;;;;;;4909473;29;20045;-76
2023/08/08 10:04:46;;;;;;;3.33;1.30;;;22.50;99.60;;;;;;4896571;29;20046;-77
2023/08/08 10:07:12;;;;;;;3.10;1.20;;;21.90;99.90;;;;;;4889671;29;20057;-78
2023/08/08 10:09:38;;;;;;;5.65;1.25;;;21.30;99.90;;;;;;4879511;29;20491;-74
2023/08/08 10:12:08;;;;;;;4.03;1.45;;;20.90;99.90;;;;;;4887149;29;20056;-76
2023/08/08 10:14:37;;;;;;;5.07;1.60;;;20.50;99.90;;;;;;4905797;29;20048;-75
2023/08/08 10:17:04;;;;;;;3.42;1.17;;;20.10;99.90;;;;;;4912359;29;20052;-77
2023/08/08 10:19:30;;;;;;;4.57;1.60;;;19.90;99.90;;;;;;4895915;29;20068;-75
2023/08/08 10:21:58;;;;;;;4.82;1.80;;;19.70;99.90;;;;;;4896707;29;20044;-78
2023/08/08 10:24:24;;;;;;;5.55;1.35;;;19.60;99.90;;;;;;4899209;29;20128;-72
2023/08/08 10:26:53;;;;;;;4.88;1.60;;;19.70;99.90;;;;;;4890349;29;20153;-81
2023/08/08 10:29:20;;;;;;;5.28;1.77;;;19.80;99.90;;;;;;4895963;29;20053;-85
2023/08/08 10:32:06;;;;;;;5.07;1.45;;;20.00;99.90;;;;;;4898871;29;20206;-82
2023/08/08 10:34:47;;;;;;;8.45;1.73;;;20.00;99.90;;;;;;4897921;29;20096;-83
2023/08/08 10:37:15;;;;;;;6.82;1.60;;;20.10;99.90;;;;;;4899057;29;20496;-81
2023/08/08 10:40:00;;;;;;;6.35;1.75;;;20.10;99.90;;;;;;4897650;29;20049;-80
2023/08/08 10:42:28;;;;;;;6.95;1.80;;;20.20;99.90;;;;;;4901850;29;20045;-80
2023/08/08 10:44:59;;;;;;;6.03;1.42;;;20.30;99.90;;;;;;4898342;29;20045;-81
2023/08/08 10:47:27;;;;;;;4.75;1.40;;;20.40;99.90;;;;;;4900631;29;20439;-81
2023/08/08 10:49:59;;;;;;;4.40;1.40;;;20.50;99.90;;;;;;4912480;29;20514;-81
2023/08/08 10:52:25;;;;;;;3.97;1.38;;;20.70;99.90;;;;;;4897820;29;20112;-83
2023/08/08 10:54:54;;;;;;;6.22;1.55;;;20.80;99.90;;;;;;4884170;29;20083;-81
2023/08/08 10:57:24;;;;;;;5.05;1.60;;;20.90;99.90;;;;;;4886620;29;20078;-78
2023/08/08 10:59:50;;;;;;;6.50;1.70;;;21.00;99.90;;;;;;4921320;29;20074;-85
2023/08/08 11:02:16;;;;;;;5.00;1.50;;;21.20;99.90;;;;;;4899765;29;20049;-87
2023/08/08 11:04:42;;;;;;;6.35;1.48;;;21.30;99.90;;;;;;4881753;29;20149;-84
2023/08/08 11:07:08;;;;;;;5.78;1.67;;;21.50;99.90;;;;;;4916270;29;20061;-81
2023/08/08 11:09:34;;;;;;;3.60;1.23;;;21.50;99.90;;;;;;4888889;29;20048;-84
2023/08/08 11:12:00;;;;;;;6.43;1.52;;;21.50;99.20;;;;;;4896808;29;20055;-78
2023/08/08 11:14:26;;;;;;;7.10;1.70;;;21.30;99.00;;;;;;4897071;29;20044;-83
2023/08/08 11:16:52;;;;;;;3.15;1.30;;;21.20;98.80;;;;;;4896061;29;20048;-80
2023/08/08 11:19:19;;;;;;;4.18;1.42;;;21.00;98.60;;;;;;4893801;29;20119;-80
2023/08/08 11:21:46;;;;;;;9.73;1.80;;;20.90;98.40;;;;;;4892079;29;20067;-81
2023/08/08 11:24:12;;;;;;;6.82;1.50;;;20.90;98.10;;;;;;4897168;29;20057;-81
2023/08/08 11:26:40;;;;;;;6.72;1.88;;;21.00;98.90;;;;;;4871107;29;20080;-82
2023/08/08 11:29:06;;;;;;;5.60;1.40;;;20.90;99.20;;;;;;4897511;29;20153;-80
2023/08/08 11:31:34;;;;;;;8.43;1.77;;;20.90;98.90;;;;;;4896594;29;20083;-78
2023/08/08 11:34:00;;;;;;;6.43;1.48;;;20.70;98.70;;;;;;4892111;29;20040;-83
2023/08/08 11:36:29;;;;;;;5.43;1.33;;;20.80;99.30;;;;;;4907743;29;20117;-83
2023/08/08 11:38:57;;;;;;;4.57;1.27;;;20.80;99.20;;;;;;4896775;29;20130;-80
2023/08/08 11:41:23;;;;;;;4.15;1.30;;;20.90;99.30;;;;;;4878103;29;20067;-79
2023/08/08 11:43:51;;;;;;;6.43;1.60;;;20.90;98.60;;;;;;4895169;29;20403;-79
2023/08/08 11:46:17;;;;;;;3.95;1.33;;;20.70;98.40;;;;;;4881711;29;20056;-80
2023/08/08 11:48:46;;;;;;;5.00;1.52;;;20.80;98.40;;;;;;4898620;29;20402;-79
2023/08/08 11:51:14;;;;;;;4.45;1.30;;;20.90;98.30;;;;;;4917018;29;20079;-77
2023/08/08 11:53:50;;;;;;;5.50;1.60;;;21.00;98.50;;;;;;4899515;29;20052;-78
2023/08/08 11:56:16;;;;;;;6.47;1.70;;;20.90;99.20;;;;;;4910055;29;20052;-79
2023/08/08 11:58:41;;;;;;;9.98;1.70;;;20.80;99.30;;;;;;4882814;29;20044;-80
2023/08/08 12:01:08;;;;;;;6.13;1.60;;;20.80;99.70;;;;;;4895606;29;20487;-80
2023/08/08 12:03:38;;;;;;;4.18;1.40;;;21.00;99.70;;;;;;4897526;29;20136;-79
2023/08/08 12:06:12;;;;;;;6.10;1.63;;;21.10;98.80;;;;;;4887961;29;20052;-81
2023/08/08 12:08:40;;;;;;;6.18;1.50;;;21.20;98.20;;;;;;4891816;29;20088;-74
2023/08/08 12:11:05;;;;;;;5.68;1.50;;;21.30;98.90;;;;;;4901167;29;20044;-80
2023/08/08 12:13:31;;;;;;;6.90;1.98;;;21.30;98.30;;;;;;4896608;29;20104;-79
2023/08/08 12:15:59;;;;;;;7.10;1.42;;;21.20;98.50;;;;;;4898599;29;20049;-80
2023/08/08 12:18:24;;;;;;;5.55;1.65;;;21.20;98.60;;;;;;4900109;29;20076;-79
2023/08/08 12:20:50;;;;;;;6.85;1.85;;;21.00;99.60;;;;;;4892353;29;20048;-79
2023/08/08 12:23:16;;;;;;;5.75;1.63;;;20.80;99.90;;;;;;4898841;29;20052;-80
2023/08/08 12:25:42;;;;;;;9.23;1.80;;;20.50;99.90;;;;;;4883356;29;20052;-74
2023/08/08 12:28:08;;;;;;;5.10;1.65;;;20.20;99.90;;;;;;4900018;29;20045;-79
2023/08/08 12:30:34;;;;;;;7.32;1.70;;;20.20;99.90;;;;;;4900134;29;20136;-78
2023/08/08 12:33:01;;;;;;;9.05;1.70;;;20.20;99.90;;;;;;4917602;29;20051;-77
2023/08/08 12:35:27;;;;;;;6.55;1.60;;;20.10;99.90;;;;;;4880505;29;20055;-79
2023/08/08 12:37:53;;;;;;;5.50;1.60;;;20.10;99.90;;;;;;4901309;29;20512;-78
2023/08/08 12:40:19;;;;;;;5.88;1.50;;;20.00;99.90;;;;;;4883378;29;20128;-80
2023/08/08 12:42:44;;;;;;;5.78;1.70;;;20.00;99.90;;;;;;4898206;29;20048;-73
2023/08/08 12:45:10;;;;;;;8.60;1.90;;;20.00;99.90;;;;;;4884307;29;20048;-81
2023/08/08 12:47:39;;;;;;;8.82;1.77;;;20.00;99.90;;;;;;4898723;29;20093;-81
2023/08/08 12:50:06;;;;;;;3.15;1.33;;;20.10;99.90;;;;;;4899227;29;20048;-79
2023/08/08 12:52:32;;;;;;;4.90;1.42;;;20.10;99.90;;;;;;4882657;29;20064;-83
2023/08/08 12:54:57;;;;;;;5.25;1.55;;;20.10;99.90;;;;;;4897403;29;20041;-80